^^
Datos históricos de la estación: Murcia-Puente Tocinos
Diario Informe para Diciembre 6, 2021 Unidades:  Métrico    Ingés   Ambas
Diario Semanal Mensual Anual
  Máxima: Mínima: Promedio:
Temperatura: 18.8 °C 10.7 °C 14.5 °C
Punto de rocio: 4.8 °C 1.3 °C 2.6 °C
Humedad: 65% 33% 46%
Velocidad viento: 23.3km/h 3.2km/h 9.8km/h
Racha viento: 41.2km/h - -
Viento- - SO
Presión: 1023.7 hPa 1020.7 hPa -
Precipitación: 0.0 mm    
 
 
Tabla de datos para Diciembre 6, 2021
Hora Temperatura Punto de rocio Presión Viento Velocidad viento Racha viento Humedad Intensidad lluvia(por hora) Nubes
00:04 12.1 °C 4.6 °C 1021.2 hPa SE 3.2 km/h 8.7 km/h 60% 0.0 mm
00:09 11.9 °C 4.7 °C 1021.3 hPa SE 3.6 km/h 9.5 km/h 61.1% 0.0 mm
00:14 11.7 °C 4.8 °C 1021.3 hPa SSE 4.7 km/h 11.1 km/h 62.5% 0.0 mm
00:19 11.6 °C 4.8 °C 1021.3 hPa Sur 5.2 km/h 11.1 km/h 63% 0.0 mm
00:24 11.5 °C 4.8 °C 1021.3 hPa SSO 6.9 km/h 13 km/h 63.4% 0.0 mm
00:29 11.4 °C 4.8 °C 1021.1 hPa SSO 7.3 km/h 11.1 km/h 64% 0.0 mm
00:34 11.4 °C 4.7 °C 1021.1 hPa SO 8.4 km/h 14.8 km/h 63.6% 0.0 mm
00:39 11.6 °C 4.7 °C 1021.1 hPa OSO 8.9 km/h 19 km/h 62.8% 0.0 mm
00:44 11.7 °C 4.6 °C 1020.8 hPa SO 10.3 km/h 22.2 km/h 62% 0.0 mm
00:49 11.7 °C 4.7 °C 1020.8 hPa SO 11 km/h 20.4 km/h 62% 0.0 mm
00:54 11.7 °C 4.7 °C 1020.8 hPa OSO 13 km/h 20.4 km/h 62% 0.0 mm
00:59 11.7 °C 4.5 °C 1020.7 hPa ONO 11.7 km/h 16.7 km/h 61.1% 0.0 mm
01:04 11.8 °C 4.4 °C 1020.7 hPa North 8.7 km/h 13 km/h 60.5% 0.0 mm
01:09 11.8 °C 4.4 °C 1021.1 hPa NE 7.7 km/h 11.1 km/h 60.2% 0.0 mm
01:14 11.6 °C 4.4 °C 1021.1 hPa ESE 5 km/h 8.4 km/h 61.5% 0.0 mm
01:19 11.1 °C 4.4 °C 1021.1 hPa ESE 5 km/h 7.4 km/h 63.5% 0.0 mm
01:24 10.8 °C 4.5 °C 1021.1 hPa SSE 5 km/h 10 km/h 65% 0.0 mm
01:29 10.8 °C 4.4 °C 1020.9 hPa Oeste 5.2 km/h 13.7 km/h 64.6% 0.0 mm
01:34 11.1 °C 4.2 °C 1020.9 hPa OSO 5.8 km/h 14.8 km/h 62.7% 0.0 mm
01:39 11.3 °C 4.1 °C 1020.9 hPa Oeste 6.6 km/h 16.7 km/h 61.5% 0.0 mm
01:44 11.5 °C 4.1 °C 1020.8 hPa ONO 8.7 km/h 18.5 km/h 60.1% 0.0 mm
01:49 11.8 °C 4 °C 1020.8 hPa Oeste 8.4 km/h 13 km/h 59% 0.0 mm
01:54 11.8 °C 3.9 °C 1021.0 hPa SSO 7.6 km/h 5.6 km/h 58.6% 0.0 mm
01:59 11.8 °C 4 °C 1021.0 hPa SSO 6.4 km/h 9.5 km/h 58.7% 0.0 mm
02:04 11.7 °C 4 °C 1021.0 hPa Sur 3.9 km/h 10 km/h 59.5% 0.0 mm
02:09 11.4 °C 4 °C 1021.0 hPa SSE 4.4 km/h 8.7 km/h 60.4% 0.0 mm
02:14 11.2 °C 4.1 °C 1021.0 hPa Sur 5.8 km/h 9.5 km/h 61.4% 0.0 mm
02:19 11.1 °C 4.1 °C 1021.0 hPa Sur 6 km/h 11.9 km/h 62% 0.0 mm
02:24 11.2 °C 4.1 °C 1021.2 hPa Sur 6.4 km/h 14.8 km/h 61.6% 0.0 mm
02:29 11.5 °C 4.1 °C 1021.2 hPa Sur 7 km/h 13 km/h 60.1% 0.0 mm
02:34 11.5 °C 4 °C 1021.2 hPa Sur 8.4 km/h 13 km/h 60% 0.0 mm
02:39 11.4 °C 3.9 °C 1021.3 hPa SSE 8.7 km/h 17.2 km/h 60% 0.0 mm
02:44 11.5 °C 4 °C 1021.3 hPa Sur 9.5 km/h 16.1 km/h 60% 0.0 mm
02:49 11.6 °C 3.9 °C 1021.3 hPa SSO 9.3 km/h 19 km/h 59.4% 0.0 mm
02:54 11.7 °C 3.9 °C 1021.3 hPa OSO 8.7 km/h 9.3 km/h 58.7% 0.0 mm
02:59 11.7 °C 3.8 °C 1021.3 hPa Sur 7.6 km/h 8.4 km/h 58.7% 0.0 mm
03:04 11.6 °C 3.8 °C 1021.3 hPa ONO 5 km/h 11.1 km/h 58.8% 0.0 mm
03:09 11.7 °C 3.7 °C 1021.3 hPa SSO 4.9 km/h 9.3 km/h 58% 0.0 mm
03:14 11.7 °C 3.7 °C 1021.2 hPa NE 4.7 km/h 7.4 km/h 58% 0.0 mm
03:19 11.7 °C 3.6 °C 1021.2 hPa Sur 4.3 km/h 7.6 km/h 57.6% 0.0 mm
03:24 11.6 °C 3.6 °C 1021.2 hPa ENE 3.2 km/h 9.5 km/h 58% 0.0 mm
03:29 11.3 °C 3.5 °C 1021.2 hPa Este 3.9 km/h 9.5 km/h 58.8% 0.0 mm
03:34 11 °C 3.5 °C 1021.2 hPa Este 5.8 km/h 9.3 km/h 59.8% 0.0 mm
03:39 10.8 °C 3.5 °C 1021.3 hPa Este 5.6 km/h 7.6 km/h 60.8% 0.0 mm
03:44 10.7 °C 3.5 °C 1021.3 hPa SE 5 km/h 8.4 km/h 61% 0.0 mm
03:49 10.9 °C 3.5 °C 1021.3 hPa SSE 5.2 km/h 8.4 km/h 60.4% 0.0 mm
03:54 11.3 °C 3.5 °C 1021.5 hPa SE 5.8 km/h 9.5 km/h 58.5% 0.0 mm
03:59 11.7 °C 3.5 °C 1021.5 hPa ESE 6.1 km/h 11.9 km/h 57% 0.0 mm
04:04 11.8 °C 3.3 °C 1021.5 hPa ESE 6.9 km/h 13.7 km/h 56.2% 0.0 mm
04:09 11.9 °C 3.2 °C 1021.5 hPa ESE 7.1 km/h 11.1 km/h 55.3% 0.0 mm
04:14 12.1 °C 3.1 °C 1021.3 hPa ESE 7.6 km/h 9.3 km/h 54.2% 0.0 mm
04:19 12.1 °C 3.1 °C 1021.3 hPa NE 6.9 km/h 7.6 km/h 54.1% 0.0 mm
04:24 11.8 °C 3.1 °C 1021.5 hPa SO 5 km/h 7.6 km/h 55.3% 0.0 mm
04:29 11.6 °C 3.1 °C 1021.5 hPa SSE 4.9 km/h 9.5 km/h 56% 0.0 mm
04:34 11.3 °C 3.1 °C 1021.5 hPa SE 4.7 km/h 8.4 km/h 56.9% 0.0 mm
04:39 11.2 °C 3 °C 1021.5 hPa SSO 4.8 km/h 11.9 km/h 57% 0.0 mm
04:44 11.3 °C 2.9 °C 1021.4 hPa SO 5 km/h 15.6 km/h 56.3% 0.0 mm
04:49 11.2 °C 2.9 °C 1021.4 hPa NE 5.5 km/h 11.1 km/h 56.9% 0.0 mm
04:54 10.9 °C 2.9 °C 1021.5 hPa North 6.9 km/h 9.5 km/h 57.8% 0.0 mm
04:59 10.8 °C 2.9 °C 1021.5 hPa OSO 6.2 km/h 8.4 km/h 58% 0.0 mm
05:04 10.9 °C 2.9 °C 1021.5 hPa SE 4.7 km/h 7.4 km/h 58% 0.0 mm
05:09 10.9 °C 2.9 °C 1021.5 hPa ENE 4.7 km/h 8.4 km/h 57.9% 0.0 mm
05:14 11.2 °C 2.8 °C 1021.5 hPa North 4.7 km/h 10 km/h 56.4% 0.0 mm
05:19 11.5 °C 2.7 °C 1021.5 hPa NO 5 km/h 18.5 km/h 54.9% 0.0 mm
05:24 11.9 °C 2.6 °C 1021.5 hPa ONO 5.8 km/h 14.8 km/h 53.1% 0.0 mm
05:29 11.9 °C 2.6 °C 1021.5 hPa NO 5.8 km/h 7.4 km/h 53% 0.0 mm
05:34 11.8 °C 2.5 °C 1021.5 hPa ONO 5.8 km/h 11.1 km/h 53% 0.0 mm
05:39 12.1 °C 2.5 °C 1021.6 hPa ONO 6 km/h 13 km/h 52% 0.0 mm
05:44 12.2 °C 2.3 °C 1021.6 hPa NO 6.4 km/h 7.4 km/h 51% 0.0 mm
05:49 12.2 °C 2.3 °C 1021.6 hPa NO 6 km/h 9.5 km/h 51% 0.0 mm
05:54 12.2 °C 2.4 °C 1021.6 hPa NO 5 km/h 14.8 km/h 51% 0.0 mm
05:59 12.2 °C 2.4 °C 1021.6 hPa ONO 6.1 km/h 13.7 km/h 51% 0.0 mm
06:04 12.2 °C 2.3 °C 1021.6 hPa ONO 8.7 km/h 20.9 km/h 51% 0.0 mm
06:09 12 °C 2.2 °C 1021.6 hPa ONO 9.5 km/h 22.5 km/h 51.2% 0.0 mm
06:14 11.9 °C 2.2 °C 1021.4 hPa ONO 11.9 km/h 24.1 km/h 51.4% 0.0 mm
06:19 11.8 °C 2.2 °C 1021.4 hPa ONO 12 km/h 18.5 km/h 52% 0.0 mm
06:24 11.7 °C 2.2 °C 1021.6 hPa ONO 12.2 km/h 28.2 km/h 52.2% 0.0 mm
06:29 11.8 °C 2.3 °C 1021.6 hPa ONO 12.5 km/h 22.5 km/h 52% 0.0 mm
06:34 11.8 °C 2.3 °C 1021.6 hPa ONO 13 km/h 22.2 km/h 52% 0.0 mm
06:39 11.8 °C 2.3 °C 1021.8 hPa ONO 13.2 km/h 19.8 km/h 52% 0.0 mm
06:44 11.7 °C 2.2 °C 1021.8 hPa ONO 13.7 km/h 22.5 km/h 52% 0.0 mm
06:49 11.8 °C 2.3 °C 1021.8 hPa ONO 14.2 km/h 30.6 km/h 51.9% 0.0 mm
06:54 12.1 °C 2.2 °C 1021.8 hPa ONO 15.6 km/h 33.5 km/h 50.7% 0.0 mm
06:59 12.4 °C 2.2 °C 1021.7 hPa ONO 17 km/h 28.2 km/h 50% 0.0 mm
07:04 12.3 °C 2.2 °C 1021.7 hPa ONO 20.1 km/h 31.5 km/h 50% 0.0 mm
07:09 12.3 °C 2.2 °C 1021.9 hPa ONO 19.5 km/h 27.8 km/h 50% 0.0 mm
07:14 12.4 °C 2.3 °C 1021.9 hPa ONO 18 km/h 22.2 km/h 50% 0.0 mm
07:19 12.3 °C 2.2 °C 1021.9 hPa ONO 16.8 km/h 24.1 km/h 50% 0.0 mm
07:24 12.3 °C 2.2 °C 1022.1 hPa ONO 13.7 km/h 20.4 km/h 50% 0.0 mm
07:29 12.3 °C 2.2 °C 1022.1 hPa Oeste 13 km/h 16.7 km/h 50% 0.0 mm
07:34 12.2 °C 2.1 °C 1022.1 hPa OSO 11.1 km/h 13 km/h 50% 0.0 mm
07:39 12 °C 2 °C 1022.4 hPa Sur 10.2 km/h 14.8 km/h 50.4% 0.0 mm
07:44 11.6 °C 1.9 °C 1022.4 hPa ESE 7.6 km/h 14.8 km/h 51.5% 0.0 mm
07:49 11.3 °C 2 °C 1022.4 hPa SSE 7.3 km/h 8.4 km/h 52.8% 0.0 mm
07:54 11.1 °C 2 °C 1022.5 hPa Sur 6.4 km/h 9.3 km/h 53.5% 0.0 mm
07:59 11.1 °C 2.1 °C 1022.5 hPa SO 5.9 km/h 9.5 km/h 54% 0.0 mm
08:04 11.2 °C 2 °C 1022.5 hPa Sur 4.7 km/h 9.3 km/h 53.3% 0.0 mm
08:09 11.2 °C 1.9 °C 1022.7 hPa SSE 4.8 km/h 9.3 km/h 53% 0.0 mm
08:14 11.2 °C 2 °C 1022.7 hPa SSE 5 km/h 8.4 km/h 53.1% 0.0 mm
08:19 11.2 °C 2.2 °C 1022.7 hPa SE 5.2 km/h 9.3 km/h 53.9% 0.0 mm
08:24 11.2 °C 2.1 °C 1022.8 hPa SSE 5.8 km/h 10 km/h 53.7% 0.0 mm
08:29 11.1 °C 2.1 °C 1022.8 hPa SSE 5.8 km/h 12.2 km/h 54% 0.0 mm
08:34 11.2 °C 2.2 °C 1022.8 hPa SSE 5.8 km/h 16.7 km/h 54% 0.0 mm
08:39 11.5 °C 2.3 °C 1023.0 hPa SSE 6.2 km/h 13 km/h 53.1% 0.0 mm
08:44 11.8 °C 2.3 °C 1023.0 hPa Sur 7.6 km/h 8.4 km/h 52.1% 0.0 mm
08:49 11.8 °C 2.3 °C 1023.0 hPa SSE 6.9 km/h 13 km/h 52% 0.0 mm
08:54 11.8 °C 2.3 °C 1023.0 hPa Sur 5 km/h 16.1 km/h 52% 0.0 mm
08:59 11.8 °C 2.3 °C 1022.9 hPa SSO 6 km/h 16.7 km/h 52% 0.0 mm
09:04 11.8 °C 2.3 °C 1022.9 hPa SSO 8.4 km/h 11.1 km/h 52% 0.0 mm
09:09 11.8 °C 2.3 °C 1023.2 hPa ONO 7.7 km/h 7.6 km/h 52% 0.0 mm
09:14 11.8 °C 2.5 °C 1023.2 hPa NO 5.8 km/h 7.4 km/h 52.9% 0.0 mm
09:19 12.1 °C 2.5 °C 1023.2 hPa OSO 5.1 km/h 7.4 km/h 52% 0.0 mm
09:24 12.3 °C 2.5 °C 1023.3 hPa Sur 3.2 km/h 9.5 km/h 51.2% 0.0 mm
09:29 12.6 °C 2.6 °C 1023.3 hPa SSO 3.9 km/h 11.9 km/h 50.6% 0.0 mm
09:34 12.8 °C 2.6 °C 1023.3 hPa ONO 5.8 km/h 11.1 km/h 49.9% 0.0 mm
09:39 12.8 °C 2.5 °C 1023.4 hPa SSO 6 km/h 11.1 km/h 49.5% 0.0 mm
09:44 13.1 °C 2.6 °C 1023.4 hPa Sur 6.4 km/h 9.3 km/h 49% 0.0 mm
09:49 13.2 °C 2.6 °C 1023.4 hPa NO 6.3 km/h 8.4 km/h 48.7% 0.0 mm
09:54 13.3 °C 2.6 °C 1023.6 hPa ONO 5.8 km/h 14.8 km/h 48.6% 0.0 mm
09:59 13.3 °C 2.5 °C 1023.6 hPa SO 6.2 km/h 9.3 km/h 48% 0.0 mm
10:04 13.5 °C 2.6 °C 1023.6 hPa SSO 6.9 km/h 14 km/h 47.7% 0.0 mm
10:09 13.7 °C 2.4 °C 1023.6 hPa OSO 6.8 km/h 14.8 km/h 46.3% 0.0 mm
10:14 14 °C 2.5 °C 1023.5 hPa SO 6.4 km/h 13.7 km/h 46% 0.0 mm
10:19 14.2 °C 2.5 °C 1023.5 hPa Oeste 6.9 km/h 18.5 km/h 45.1% 0.0 mm
10:24 14.2 °C 2.6 °C 1023.5 hPa Oeste 8.4 km/h 16.7 km/h 45.7% 0.0 mm
10:29 14.2 °C 2.6 °C 1023.5 hPa OSO 8.5 km/h 16.7 km/h 45.5% 0.0 mm
10:34 14.3 °C 2.5 °C 1023.5 hPa OSO 8.7 km/h 24.5 km/h 45% 0.0 mm
10:39 14.4 °C 2.6 °C 1023.7 hPa Oeste 9.1 km/h 18.5 km/h 45% 0.0 mm
10:44 14.6 °C 2.8 °C 1023.7 hPa Oeste 10.3 km/h 18.5 km/h 45% 0.0 mm
10:49 14.7 °C 2.8 °C 1023.7 hPa ONO 10.2 km/h 25.9 km/h 44.5% 0.0 mm
10:54 14.8 °C 2.6 °C 1023.7 hPa ONO 10 km/h 30.6 km/h 43.6% 0.0 mm
10:59 15 °C 2.6 °C 1023.7 hPa ONO 13.2 km/h 33.5 km/h 43.3% 0.0 mm
11:04 15.1 °C 2.6 °C 1023.7 hPa ONO 20.1 km/h 37.8 km/h 43% 0.0 mm
11:09 15.2 °C 2.5 °C 1023.7 hPa ONO 20.8 km/h 37.8 km/h 42.6% 0.0 mm
11:14 15.2 °C 2.4 °C 1023.4 hPa ONO 22.5 km/h 41.2 km/h 42.2% 0.0 mm
11:19 15.3 °C 2.6 °C 1023.4 hPa ONO 22.7 km/h 34.3 km/h 42.4% 0.0 mm
11:24 15.3 °C 2.4 °C 1023.6 hPa ONO 23.3 km/h 35.9 km/h 42% 0.0 mm
11:29 15.4 °C 2.5 °C 1023.6 hPa ONO 22.9 km/h 36.2 km/h 42% 0.0 mm
11:34 15.4 °C 2.6 °C 1023.6 hPa ONO 21.7 km/h 37 km/h 42% 0.0 mm
11:39 15.6 °C 2.5 °C 1023.6 hPa ONO 21.3 km/h 31.5 km/h 41.5% 0.0 mm
11:44 15.7 °C 2.4 °C 1023.5 hPa ONO 20.1 km/h 33.3 km/h 41% 0.0 mm
11:49 15.7 °C 2.5 °C 1023.5 hPa ONO 20 km/h 33.5 km/h 41.1% 0.0 mm
11:54 15.7 °C 2.7 °C 1023.5 hPa ONO 19.8 km/h 29.6 km/h 41.9% 0.0 mm
11:59 15.8 °C 2.7 °C 1023.4 hPa NO 18.7 km/h 27.8 km/h 41.6% 0.0 mm
12:04 15.8 °C 2.6 °C 1023.4 hPa ONO 16.4 km/h 29.8 km/h 41% 0.0 mm
12:09 15.9 °C 2.7 °C 1023.4 hPa ONO 16.9 km/h 31.5 km/h 41% 0.0 mm
12:14 16.1 °C 2.6 °C 1023.1 hPa ONO 18.3 km/h 31.5 km/h 40.3% 0.0 mm
12:19 16.2 °C 2.6 °C 1023.1 hPa ONO 18.3 km/h 29.6 km/h 40.3% 0.0 mm
12:24 16.3 °C 2.6 °C 1023.1 hPa ONO 18 km/h 29.6 km/h 40% 0.0 mm
12:29 16.4 °C 2.6 °C 1023.0 hPa ONO 17.8 km/h 22.5 km/h 39.5% 0.0 mm
12:34 16.6 °C 2.7 °C 1023.0 hPa Oeste 17.2 km/h 22.2 km/h 39.2% 0.0 mm
12:39 16.8 °C 2.8 °C 1023.0 hPa OSO 15.5 km/h 28.2 km/h 39% 0.0 mm
12:44 16.9 °C 2.7 °C 1022.7 hPa OSO 10.3 km/h 37 km/h 38.6% 0.0 mm
12:49 16.8 °C 2.7 °C 1022.7 hPa Oeste 12.2 km/h 24.1 km/h 38.9% 0.0 mm
12:54 16.8 °C 2.8 °C 1022.7 hPa Oeste 17.2 km/h 30.6 km/h 39% 0.0 mm
12:59 16.9 °C 2.9 °C 1022.5 hPa OSO 16.2 km/h 29.6 km/h 39% 0.0 mm
13:04 17 °C 3 °C 1022.5 hPa Oeste 14 km/h 31.7 km/h 39% 0.0 mm
13:09 17.1 °C 3 °C 1022.5 hPa Oeste 14.6 km/h 29.8 km/h 39% 0.0 mm
13:14 17.1 °C 3 °C 1022.4 hPa OSO 16.1 km/h 27.8 km/h 39% 0.0 mm
13:19 17.2 °C 2.9 °C 1022.4 hPa OSO 16.1 km/h 29.1 km/h 38.7% 0.0 mm
13:24 17.3 °C 2.8 °C 1022.4 hPa OSO 16.1 km/h 33.3 km/h 38% 0.0 mm
13:29 17.3 °C 2.8 °C 1022.2 hPa OSO 16.6 km/h 34.6 km/h 38% 0.0 mm
13:34 17.3 °C 2.8 °C 1022.2 hPa OSO 18 km/h 39.6 km/h 38% 0.0 mm
13:39 17.3 °C 2.9 °C 1022.2 hPa OSO 18.1 km/h 27.8 km/h 38% 0.0 mm
13:44 17.5 °C 2.9 °C 1022.1 hPa OSO 18.3 km/h 29.8 km/h 37.9% 0.0 mm
13:49 17.7 °C 2.8 °C 1022.1 hPa Oeste 17.8 km/h 33.5 km/h 37.1% 0.0 mm
13:54 17.7 °C 2.8 °C 1022.1 hPa Oeste 16.4 km/h 34.3 km/h 37% 0.0 mm
13:59 17.7 °C 2.8 °C 1022.1 hPa Oeste 16.4 km/h 29.6 km/h 37% 0.0 mm
14:04 17.9 °C 3 °C 1022.1 hPa OSO 16.4 km/h 20.4 km/h 37% 0.0 mm
14:09 17.9 °C 2.7 °C 1022.1 hPa OSO 15.6 km/h 27 km/h 36.3% 0.0 mm
14:14 18 °C 2.7 °C 1021.9 hPa OSO 13.7 km/h 27.8 km/h 36% 0.0 mm
14:19 18.2 °C 2.8 °C 1021.9 hPa Oeste 14 km/h 27 km/h 36% 0.0 mm
14:24 18.1 °C 2.7 °C 1021.9 hPa ONO 14.8 km/h 27.8 km/h 35.8% 0.0 mm
14:29 18.1 °C 2.8 °C 1021.7 hPa OSO 15.1 km/h 22.2 km/h 36% 0.0 mm
14:34 18.2 °C 2.9 °C 1021.7 hPa OSO 16.1 km/h 22.2 km/h 36% 0.0 mm
14:39 18.3 °C 2.7 °C 1021.7 hPa OSO 15 km/h 23.3 km/h 35.3% 0.0 mm
14:44 18.4 °C 2.7 °C 1021.4 hPa OSO 11.9 km/h 25.6 km/h 35% 0.0 mm
14:49 18.4 °C 2.5 °C 1021.4 hPa Oeste 12.7 km/h 26.2 km/h 34.5% 0.0 mm
14:54 18.4 °C 2.6 °C 1021.4 hPa OSO 14.8 km/h 25.9 km/h 34.8% 0.0 mm
14:59 18.5 °C 2.4 °C 1021.3 hPa OSO 14.4 km/h 27.8 km/h 34% 0.0 mm
15:04 18.6 °C 2.4 °C 1021.3 hPa OSO 13.7 km/h 27.8 km/h 34% 0.0 mm
15:09 18.6 °C 2.5 °C 1021.3 hPa OSO 14 km/h 22.2 km/h 34% 0.0 mm
15:14 18.7 °C 2.5 °C 1021.3 hPa OSO 14.8 km/h 28.2 km/h 34% 0.0 mm
15:19 18.6 °C 2.5 °C 1021.3 hPa OSO 14.6 km/h 27.8 km/h 34% 0.0 mm
15:24 18.7 °C 2.5 °C 1021.3 hPa OSO 14 km/h 27.8 km/h 34% 0.0 mm
15:29 18.8 °C 2.6 °C 1021.2 hPa Oeste 13.7 km/h 20.4 km/h 34% 0.0 mm
15:34 18.8 °C 2.4 °C 1021.2 hPa Oeste 13 km/h 27.8 km/h 33.5% 0.0 mm
15:39 18.7 °C 2.5 °C 1021.3 hPa Oeste 13.2 km/h 24.1 km/h 34% 0.0 mm
15:44 18.7 °C 2.5 °C 1021.3 hPa Oeste 13.7 km/h 24.5 km/h 33.9% 0.0 mm
15:49 18.7 °C 2.2 °C 1021.3 hPa OSO 13.5 km/h 23.3 km/h 33.3% 0.0 mm
15:54 18.8 °C 2.2 °C 1021.3 hPa OSO 13 km/h 24.1 km/h 33.1% 0.0 mm
15:59 18.8 °C 2.3 °C 1021.3 hPa Oeste 13.2 km/h 22.2 km/h 33.4% 0.0 mm
16:04 18.7 °C 2.5 °C 1021.3 hPa Oeste 13.7 km/h 18.5 km/h 33.9% 0.0 mm
16:09 18.8 °C 2.2 °C 1021.3 hPa OSO 12.7 km/h 23.3 km/h 33% 0.0 mm
16:14 18.7 °C 2.1 °C 1021.3 hPa Oeste 10 km/h 24.1 km/h 33% 0.0 mm
16:19 18.7 °C 2.1 °C 1021.3 hPa Oeste 10.8 km/h 20.9 km/h 33% 0.0 mm
16:24 18.7 °C 2.1 °C 1021.4 hPa Oeste 13 km/h 16.7 km/h 33% 0.0 mm
16:29 18.7 °C 2.1 °C 1021.4 hPa Oeste 12.3 km/h 18.5 km/h 33% 0.0 mm
16:34 18.7 °C 2.1 °C 1021.4 hPa Oeste 10.3 km/h 20.4 km/h 33% 0.0 mm
16:39 18.7 °C 2.1 °C 1021.5 hPa Oeste 9.6 km/h 11.1 km/h 33% 0.0 mm
16:44 18.8 °C 2.2 °C 1021.5 hPa OSO 7.6 km/h 11.1 km/h 33% 0.0 mm
16:49 18.8 °C 2.2 °C 1021.5 hPa SO 7.4 km/h 18.5 km/h 33% 0.0 mm
16:54 18.8 °C 2.2 °C 1021.5 hPa OSO 6.9 km/h 15.6 km/h 33% 0.0 mm
16:59 18.7 °C 2.1 °C 1021.4 hPa OSO 7.7 km/h 13.7 km/h 33% 0.0 mm
17:04 18.7 °C 2.1 °C 1021.4 hPa OSO 9.5 km/h 16.7 km/h 33% 0.0 mm
17:09 18.7 °C 2.1 °C 1021.5 hPa OSO 9.2 km/h 13 km/h 33% 0.0 mm
17:14 18.7 °C 2.1 °C 1021.5 hPa Oeste 8.4 km/h 13 km/h 33.2% 0.0 mm
17:19 18.6 °C 2.4 °C 1021.5 hPa Oeste 7.9 km/h 11.1 km/h 33.9% 0.0 mm
17:24 18.4 °C 2.2 °C 1021.6 hPa Oeste 6.4 km/h 14.8 km/h 34% 0.0 mm
17:29 18.3 °C 2.2 °C 1021.6 hPa Oeste 6.8 km/h 14.8 km/h 34% 0.0 mm
17:34 18.2 °C 2.1 °C 1021.6 hPa Oeste 7.6 km/h 9.3 km/h 34.2% 0.0 mm
17:39 18.2 °C 2.4 °C 1022.0 hPa OSO 6.5 km/h 8.4 km/h 34.8% 0.0 mm
17:44 18.2 °C 2.4 °C 1022.0 hPa NO 3.9 km/h 7.4 km/h 35% 0.0 mm
17:49 18 °C 2.3 °C 1022.0 hPa ONO 3.9 km/h 8.4 km/h 35% 0.0 mm
17:54 17.9 °C 2.2 °C 1022.2 hPa ONO 3.9 km/h 10.3 km/h 35% 0.0 mm
17:59 17.8 °C 2.3 °C 1022.2 hPa ONO 4.5 km/h 11.1 km/h 35.4% 0.0 mm
18:04 17.6 °C 2.3 °C 1022.2 hPa Oeste 5.8 km/h 10 km/h 36% 0.0 mm
18:09 17.4 °C 2.2 °C 1022.3 hPa Oeste 6.1 km/h 11.1 km/h 36% 0.0 mm
18:14 17.3 °C 2.1 °C 1022.3 hPa OSO 6.9 km/h 9.5 km/h 36% 0.0 mm
18:19 17.3 °C 2.1 °C 1022.3 hPa SO 6.4 km/h 11.1 km/h 36% 0.0 mm
18:24 17.3 °C 2.1 °C 1022.3 hPa Sur 5 km/h 10 km/h 36% 0.0 mm
18:29 17.3 °C 2.1 °C 1022.2 hPa SSE 5.4 km/h 11.1 km/h 36% 0.0 mm
18:34 17.3 °C 2.1 °C 1022.2 hPa Sur 6.4 km/h 13 km/h 36% 0.0 mm
18:39 17.3 °C 2.1 °C 1022.4 hPa Sur 6.6 km/h 13 km/h 36% 0.0 mm
18:44 17.4 °C 2.1 °C 1022.4 hPa SO 6.9 km/h 14.8 km/h 35.9% 0.0 mm
18:49 17.4 °C 1.8 °C 1022.4 hPa SSO 6.6 km/h 7.4 km/h 35% 0.0 mm
18:54 17.4 °C 1.8 °C 1022.5 hPa Oeste 5.8 km/h 14.8 km/h 35% 0.0 mm
18:59 17.4 °C 1.8 °C 1022.5 hPa ONO 5.8 km/h 13 km/h 35% 0.0 mm
19:04 17.3 °C 1.7 °C 1022.5 hPa OSO 5.8 km/h 14.8 km/h 35% 0.0 mm
19:09 17.3 °C 1.6 °C 1022.5 hPa Oeste 6.1 km/h 14.8 km/h 35% 0.0 mm
19:14 17.2 °C 1.6 °C 1022.5 hPa OSO 6.9 km/h 22.2 km/h 35% 0.0 mm
19:19 17.2 °C 1.6 °C 1022.5 hPa OSO 7.3 km/h 14.8 km/h 35% 0.0 mm
19:24 17.2 °C 1.6 °C 1022.5 hPa OSO 8.4 km/h 14.8 km/h 35% 0.0 mm
19:29 17.2 °C 1.6 °C 1022.5 hPa OSO 8 km/h 13 km/h 35% 0.0 mm
19:34 17.2 °C 1.6 °C 1022.5 hPa OSO 6.9 km/h 22.5 km/h 35% 0.0 mm
19:39 17.1 °C 1.5 °C 1022.6 hPa SO 7.3 km/h 16.4 km/h 35% 0.0 mm
19:44 17.1 °C 1.5 °C 1022.6 hPa OSO 8.4 km/h 25.9 km/h 35% 0.0 mm
19:49 17.2 °C 1.6 °C 1022.6 hPa Oeste 10.2 km/h 24.1 km/h 35% 0.0 mm
19:54 17.1 °C 1.6 °C 1022.6 hPa ONO 14.8 km/h 28.2 km/h 35.3% 0.0 mm
19:59 16.9 °C 1.8 °C 1022.5 hPa Oeste 14.5 km/h 28.2 km/h 36% 0.0 mm
20:04 16.9 °C 1.7 °C 1022.5 hPa Oeste 14 km/h 28.2 km/h 36% 0.0 mm
20:09 16.8 °C 1.6 °C 1022.6 hPa Oeste 13.7 km/h 20.4 km/h 36% 0.0 mm
20:14 16.7 °C 1.8 °C 1022.6 hPa SSO 13 km/h 14.8 km/h 36.7% 0.0 mm
20:19 16.5 °C 1.8 °C 1022.6 hPa SSE 11.3 km/h 11.9 km/h 37% 0.0 mm
20:24 16.2 °C 1.8 °C 1022.8 hPa Sur 6.4 km/h 11.1 km/h 37.7% 0.0 mm
20:29 15.8 °C 1.7 °C 1022.8 hPa Sur 6.8 km/h 24.5 km/h 38.7% 0.0 mm
20:34 15.4 °C 1.5 °C 1022.8 hPa Sur 7.6 km/h 24.1 km/h 39% 0.0 mm
20:39 15.4 °C 1.5 °C 1022.8 hPa SSO 8.7 km/h 14.8 km/h 39% 0.0 mm
20:44 15.4 °C 1.5 °C 1022.7 hPa SSO 11.9 km/h 13 km/h 39% 0.0 mm
20:49 15.4 °C 1.5 °C 1022.7 hPa OSO 10.9 km/h 13 km/h 39% 0.0 mm
20:54 15.2 °C 1.6 °C 1022.7 hPa OSO 8.4 km/h 11.9 km/h 39.8% 0.0 mm
20:59 14.9 °C 1.4 °C 1022.4 hPa SO 8.1 km/h 13 km/h 40% 0.0 mm
21:04 14.9 °C 1.4 °C 1022.4 hPa SO 7.6 km/h 13 km/h 40% 0.0 mm
21:09 14.9 °C 1.4 °C 1022.4 hPa SO 7.8 km/h 13 km/h 40% 0.0 mm
21:14 14.9 °C 1.4 °C 1022.2 hPa SO 8.4 km/h 13 km/h 40% 0.0 mm
21:19 14.8 °C 1.4 °C 1022.2 hPa OSO 8.4 km/h 11.9 km/h 40% 0.0 mm
21:24 14.8 °C 1.3 °C 1022.2 hPa OSO 8.4 km/h 11.1 km/h 40.1% 0.0 mm
21:29 14.6 °C 1.5 °C 1022.2 hPa OSO 8 km/h 13 km/h 41% 0.0 mm
21:34 14.4 °C 1.4 °C 1022.2 hPa OSO 6.9 km/h 11.1 km/h 41.4% 0.0 mm
21:39 14.3 °C 1.5 °C 1022.2 hPa OSO 6.8 km/h 9.3 km/h 42% 0.0 mm
21:44 14.2 °C 1.4 °C 1022.2 hPa Oeste 6.4 km/h 7.4 km/h 42% 0.0 mm
21:49 14.2 °C 1.4 °C 1022.2 hPa SSO 5.8 km/h 7.4 km/h 42% 0.0 mm
Murcia-Puente Tocinos, Espa?a
Compliments of Weather Underground - 3 mb

La estación de MeteoMurcia.com, publica sus datos en los siguientes proyectos:

Weather Underground PWS IMURCIAP2 Meteoclimatic www.awekas.at

W3Counter
Web Analytics